Soap Lake, Washington
Current Conditions -  °F | °C
As of 10:53 AM on Sunday 23 Nov 2014 (Local Time) from KEPH Reporting Station
Clear Clear  
Wind Chill: 42°   Ceiling: Unl
Heat Index: 44°   Visibility: 10mi
Dew Point: 34°   Wind: 5mph
Humidity: 68%   Direction: 180°S
Pressure: 30.02"   Gusts: NA
Location:  47.39°N, 119.49°W
Report Text: KEPH 231853Z AUTO 18004KT 10SM CLR 07/01 A3002 RMK AO2 SLP175 T00670011 $
Loading
Personal Weather Stations






























Interactive Weather Map New forecast layout! Learn more

10-Day Weather Forecast

Advertisements
Track Severe Weather on mobile